sensor_id;sensor_type;location;lat;lon;timestamp;P1;durP1;ratioP1;P2;durP2;ratioP2
68989;SDS011;56046;47.270;11.368;2024-02-15T00:02:01;8.80;;;3.87;;
68989;SDS011;56046;47.270;11.368;2024-02-15T00:04:26;10.23;;;4.10;;
68989;SDS011;56046;47.270;11.368;2024-02-15T00:06:51;10.97;;;3.93;;
68989;SDS011;56046;47.270;11.368;2024-02-15T00:09:17;9.17;;;4.20;;
68989;SDS011;56046;47.270;11.368;2024-02-15T00:11:42;9.13;;;3.93;;
68989;SDS011;56046;47.270;11.368;2024-02-15T00:14:07;10.87;;;4.13;;
68989;SDS011;56046;47.270;11.368;2024-02-15T00:16:33;10.20;;;3.83;;
68989;SDS011;56046;47.270;11.368;2024-02-15T00:18:59;10.70;;;4.40;;
68989;SDS011;56046;47.270;11.368;2024-02-15T00:21:24;8.57;;;4.30;;
68989;SDS011;56046;47.270;11.368;2024-02-15T00:23:49;9.43;;;4.40;;
68989;SDS011;56046;47.270;11.368;2024-02-15T00:26:15;9.60;;;4.43;;
68989;SDS011;56046;47.270;11.368;2024-02-15T00:28:43;9.48;;;3.72;;
68989;SDS011;56046;47.270;11.368;2024-02-15T00:31:08;9.10;;;4.38;;
68989;SDS011;56046;47.270;11.368;2024-02-15T00:33:34;8.43;;;3.97;;
68989;SDS011;56046;47.270;11.368;2024-02-15T00:36:01;7.70;;;3.43;;
68989;SDS011;56046;47.270;11.368;2024-02-15T00:38:27;11.05;;;3.85;;
68989;SDS011;56046;47.270;11.368;2024-02-15T00:40:52;7.63;;;3.90;;
68989;SDS011;56046;47.270;11.368;2024-02-15T00:43:18;9.60;;;3.97;;
68989;SDS011;56046;47.270;11.368;2024-02-15T00:45:44;8.60;;;3.78;;
68989;SDS011;56046;47.270;11.368;2024-02-15T00:48:09;8.80;;;3.53;;
68989;SDS011;56046;47.270;11.368;2024-02-15T00:50:35;7.03;;;3.53;;
68989;SDS011;56046;47.270;11.368;2024-02-15T00:53:00;7.63;;;3.47;;
68989;SDS011;56046;47.270;11.368;2024-02-15T00:55:25;9.67;;;3.43;;
68989;SDS011;56046;47.270;11.368;2024-02-15T00:57:50;8.00;;;2.87;;
68989;SDS011;56046;47.270;11.368;2024-02-15T01:00:16;9.67;;;3.67;;
68989;SDS011;56046;47.270;11.368;2024-02-15T01:02:41;7.93;;;3.27;;
68989;SDS011;56046;47.270;11.368;2024-02-15T01:05:06;7.23;;;3.07;;
68989;SDS011;56046;47.270;11.368;2024-02-15T01:07:31;7.32;;;2.58;;
68989;SDS011;56046;47.270;11.368;2024-02-15T01:09:57;5.67;;;2.83;;
68989;SDS011;56046;47.270;11.368;2024-02-15T01:12:22;7.97;;;2.87;;
68989;SDS011;56046;47.270;11.368;2024-02-15T01:14:48;8.33;;;3.20;;
68989;SDS011;56046;47.270;11.368;2024-02-15T01:17:13;6.70;;;2.70;;
68989;SDS011;56046;47.270;11.368;2024-02-15T01:19:38;8.60;;;3.47;;
68989;SDS011;56046;47.270;11.368;2024-02-15T01:22:04;7.80;;;2.53;;
68989;SDS011;56046;47.270;11.368;2024-02-15T01:24:31;5.65;;;2.30;;
68989;SDS011;56046;47.270;11.368;2024-02-15T01:26:56;7.50;;;2.97;;
68989;SDS011;56046;47.270;11.368;2024-02-15T01:29:21;5.87;;;2.93;;
68989;SDS011;56046;47.270;11.368;2024-02-15T01:31:46;9.10;;;2.87;;
68989;SDS011;56046;47.270;11.368;2024-02-15T01:34:12;7.73;;;2.77;;
68989;SDS011;56046;47.270;11.368;2024-02-15T01:36:37;8.47;;;2.63;;
68989;SDS011;56046;47.270;11.368;2024-02-15T01:39:02;4.65;;;1.60;;
68989;SDS011;56046;47.270;11.368;2024-02-15T01:41:28;5.38;;;2.38;;
68989;SDS011;56046;47.270;11.368;2024-02-15T01:43:53;5.07;;;2.50;;
68989;SDS011;56046;47.270;11.368;2024-02-15T01:46:18;6.63;;;2.70;;
68989;SDS011;56046;47.270;11.368;2024-02-15T01:48:44;8.30;;;2.70;;
68989;SDS011;56046;47.270;11.368;2024-02-15T01:51:11;9.05;;;3.45;;
68989;SDS011;56046;47.270;11.368;2024-02-15T01:53:36;8.40;;;3.40;;
68989;SDS011;56046;47.270;11.368;2024-02-15T01:56:03;7.38;;;3.20;;
68989;SDS011;56046;47.270;11.368;2024-02-15T01:58:28;7.00;;;3.33;;
68989;SDS011;56046;47.270;11.368;2024-02-15T02:00:57;8.27;;;3.45;;
68989;SDS011;56046;47.270;11.368;2024-02-15T02:03:22;7.93;;;3.30;;
68989;SDS011;56046;47.270;11.368;2024-02-15T02:05:48;7.20;;;3.00;;
68989;SDS011;56046;47.270;11.368;2024-02-15T02:08:13;6.93;;;3.65;;
68989;SDS011;56046;47.270;11.368;2024-02-15T02:10:38;8.27;;;3.30;;
68989;SDS011;56046;47.270;11.368;2024-02-15T02:13:04;7.15;;;3.40;;
68989;SDS011;56046;47.270;11.368;2024-02-15T02:15:33;5.80;;;2.58;;
68989;SDS011;56046;47.270;11.368;2024-02-15T02:18:02;5.43;;;2.05;;
68989;SDS011;56046;47.270;11.368;2024-02-15T02:20:27;6.43;;;2.40;;
68989;SDS011;56046;47.270;11.368;2024-02-15T02:22:57;6.77;;;2.50;;
68989;SDS011;56046;47.270;11.368;2024-02-15T02:25:32;5.65;;;2.25;;
68989;SDS011;56046;47.270;11.368;2024-02-15T02:27:57;6.37;;;2.23;;
68989;SDS011;56046;47.270;11.368;2024-02-15T02:30:22;5.67;;;2.17;;
68989;SDS011;56046;47.270;11.368;2024-02-15T02:32:48;4.80;;;2.53;;
68989;SDS011;56046;47.270;11.368;2024-02-15T02:35:14;7.67;;;2.93;;
68989;SDS011;56046;47.270;11.368;2024-02-15T02:37:41;7.13;;;2.90;;
68989;SDS011;56046;47.270;11.368;2024-02-15T02:40:06;6.97;;;3.15;;
68989;SDS011;56046;47.270;11.368;2024-02-15T02:42:56;9.38;;;2.90;;
68989;SDS011;56046;47.270;11.368;2024-02-15T02:45:26;6.67;;;2.83;;
68989;SDS011;56046;47.270;11.368;2024-02-15T02:47:52;7.13;;;2.88;;
68989;SDS011;56046;47.270;11.368;2024-02-15T02:50:17;6.23;;;3.00;;
68989;SDS011;56046;47.270;11.368;2024-02-15T02:52:43;8.23;;;3.15;;
68989;SDS011;56046;47.270;11.368;2024-02-15T02:55:09;7.23;;;2.80;;
68989;SDS011;56046;47.270;11.368;2024-02-15T02:57:35;8.85;;;2.88;;
68989;SDS011;56046;47.270;11.368;2024-02-15T03:00:03;9.85;;;2.90;;
68989;SDS011;56046;47.270;11.368;2024-02-15T03:02:32;5.80;;;2.60;;
68989;SDS011;56046;47.270;11.368;2024-02-15T03:04:58;7.13;;;2.92;;
68989;SDS011;56046;47.270;11.368;2024-02-15T03:07:26;7.60;;;3.03;;
68989;SDS011;56046;47.270;11.368;2024-02-15T03:09:52;8.53;;;3.10;;
68989;SDS011;56046;47.270;11.368;2024-02-15T03:12:17;7.47;;;2.80;;
68989;SDS011;56046;47.270;11.368;2024-02-15T03:14:42;7.30;;;3.67;;
68989;SDS011;56046;47.270;11.368;2024-02-15T03:17:08;8.27;;;3.47;;
68989;SDS011;56046;47.270;11.368;2024-02-15T03:19:33;8.98;;;4.10;;
68989;SDS011;56046;47.270;11.368;2024-02-15T03:21:58;8.25;;;4.07;;
68989;SDS011;56046;47.270;11.368;2024-02-15T03:24:24;9.43;;;3.67;;
68989;SDS011;56046;47.270;11.368;2024-02-15T03:26:49;9.83;;;3.60;;
68989;SDS011;56046;47.270;11.368;2024-02-15T03:29:17;11.38;;;3.83;;
68989;SDS011;56046;47.270;11.368;2024-02-15T03:31:42;7.70;;;3.80;;
68989;SDS011;56046;47.270;11.368;2024-02-15T03:34:07;9.50;;;3.87;;
68989;SDS011;56046;47.270;11.368;2024-02-15T03:36:35;8.60;;;3.85;;
68989;SDS011;56046;47.270;11.368;2024-02-15T03:39:01;8.43;;;4.50;;
68989;SDS011;56046;47.270;11.368;2024-02-15T03:41:29;10.67;;;3.93;;
68989;SDS011;56046;47.270;11.368;2024-02-15T03:43:58;11.63;;;3.67;;
68989;SDS011;56046;47.270;11.368;2024-02-15T03:46:25;10.13;;;4.38;;
68989;SDS011;56046;47.270;11.368;2024-02-15T03:48:50;8.70;;;3.80;;
68989;SDS011;56046;47.270;11.368;2024-02-15T03:51:19;13.23;;;4.63;;
68989;SDS011;56046;47.270;11.368;2024-02-15T03:53:45;8.93;;;4.13;;
68989;SDS011;56046;47.270;11.368;2024-02-15T03:56:10;9.67;;;4.00;;
68989;SDS011;56046;47.270;11.368;2024-02-15T03:58:35;10.73;;;4.00;;
68989;SDS011;56046;47.270;11.368;2024-02-15T04:01:03;7.97;;;3.73;;
68989;SDS011;56046;47.270;11.368;2024-02-15T04:03:31;5.47;;;2.00;;
68989;SDS011;56046;47.270;11.368;2024-02-15T04:05:57;7.82;;;1.88;;
68989;SDS011;56046;47.270;11.368;2024-02-15T04:08:22;4.87;;;1.90;;
68989;SDS011;56046;47.270;11.368;2024-02-15T04:10:48;6.32;;;2.60;;
68989;SDS011;56046;47.270;11.368;2024-02-15T04:13:13;7.10;;;2.97;;
68989;SDS011;56046;47.270;11.368;2024-02-15T04:15:39;7.23;;;3.00;;
68989;SDS011;56046;47.270;11.368;2024-02-15T04:18:04;5.67;;;2.30;;
68989;SDS011;56046;47.270;11.368;2024-02-15T04:20:29;7.10;;;1.83;;
68989;SDS011;56046;47.270;11.368;2024-02-15T04:22:55;3.73;;;1.47;;
68989;SDS011;56046;47.270;11.368;2024-02-15T04:25:21;2.63;;;1.23;;
68989;SDS011;56046;47.270;11.368;2024-02-15T04:27:52;5.63;;;2.08;;
68989;SDS011;56046;47.270;11.368;2024-02-15T04:30:17;5.67;;;1.83;;
68989;SDS011;56046;47.270;11.368;2024-02-15T04:32:43;5.90;;;2.10;;
68989;SDS011;56046;47.270;11.368;2024-02-15T04:35:08;6.03;;;2.30;;
68989;SDS011;56046;47.270;11.368;2024-02-15T04:37:35;4.95;;;2.10;;
68989;SDS011;56046;47.270;11.368;2024-02-15T04:40:01;9.03;;;2.60;;
68989;SDS011;56046;47.270;11.368;2024-02-15T04:42:33;8.30;;;2.17;;
68989;SDS011;56046;47.270;11.368;2024-02-15T04:44:59;5.90;;;2.40;;
68989;SDS011;56046;47.270;11.368;2024-02-15T04:47:24;6.13;;;1.40;;
68989;SDS011;56046;47.270;11.368;2024-02-15T04:49:50;5.95;;;1.77;;
68989;SDS011;56046;47.270;11.368;2024-02-15T04:52:15;7.20;;;2.28;;
68989;SDS011;56046;47.270;11.368;2024-02-15T04:54:42;4.97;;;2.22;;
68989;SDS011;56046;47.270;11.368;2024-02-15T04:57:07;5.57;;;2.10;;
68989;SDS011;56046;47.270;11.368;2024-02-15T04:59:36;5.32;;;2.10;;
68989;SDS011;56046;47.270;11.368;2024-02-15T05:02:01;4.13;;;1.70;;
68989;SDS011;56046;47.270;11.368;2024-02-15T05:04:27;5.07;;;2.07;;
68989;SDS011;56046;47.270;11.368;2024-02-15T05:06:52;6.22;;;2.10;;
68989;SDS011;56046;47.270;11.368;2024-02-15T05:09:18;5.50;;;1.70;;
68989;SDS011;56046;47.270;11.368;2024-02-15T05:11:43;4.40;;;1.57;;
68989;SDS011;56046;47.270;11.368;2024-02-15T05:14:13;4.93;;;1.88;;
68989;SDS011;56046;47.270;11.368;2024-02-15T05:16:44;7.03;;;2.23;;
68989;SDS011;56046;47.270;11.368;2024-02-15T05:19:09;5.35;;;1.77;;
68989;SDS011;56046;47.270;11.368;2024-02-15T05:21:36;6.22;;;2.13;;
68989;SDS011;56046;47.270;11.368;2024-02-15T05:24:02;7.00;;;2.60;;
68989;SDS011;56046;47.270;11.368;2024-02-15T05:26:28;7.55;;;2.92;;
68989;SDS011;56046;47.270;11.368;2024-02-15T05:28:53;7.13;;;2.33;;
68989;SDS011;56046;47.270;11.368;2024-02-15T05:31:19;4.97;;;2.30;;
68989;SDS011;56046;47.270;11.368;2024-02-15T05:33:50;6.37;;;2.50;;
68989;SDS011;56046;47.270;11.368;2024-02-15T05:36:16;6.60;;;1.88;;
68989;SDS011;56046;47.270;11.368;2024-02-15T05:38:45;6.57;;;2.58;;
68989;SDS011;56046;47.270;11.368;2024-02-15T05:41:11;5.93;;;2.40;;
68989;SDS011;56046;47.270;11.368;2024-02-15T05:43:36;7.45;;;2.72;;
68989;SDS011;56046;47.270;11.368;2024-02-15T05:46:05;7.33;;;2.93;;
68989;SDS011;56046;47.270;11.368;2024-02-15T05:48:31;6.22;;;2.60;;
68989;SDS011;56046;47.270;11.368;2024-02-15T05:51:00;6.90;;;3.20;;
68989;SDS011;56046;47.270;11.368;2024-02-15T05:53:25;9.60;;;3.27;;
68989;SDS011;56046;47.270;11.368;2024-02-15T05:55:51;8.03;;;3.53;;
68989;SDS011;56046;47.270;11.368;2024-02-15T05:58:16;7.73;;;3.27;;
68989;SDS011;56046;47.270;11.368;2024-02-15T06:00:42;7.15;;;2.90;;
68989;SDS011;56046;47.270;11.368;2024-02-15T06:03:08;8.20;;;3.40;;
68989;SDS011;56046;47.270;11.368;2024-02-15T06:05:34;10.52;;;3.55;;
68989;SDS011;56046;47.270;11.368;2024-02-15T06:07:59;7.40;;;3.30;;
68989;SDS011;56046;47.270;11.368;2024-02-15T06:10:25;9.67;;;3.93;;
68989;SDS011;56046;47.270;11.368;2024-02-15T06:12:50;6.90;;;3.00;;
68989;SDS011;56046;47.270;11.368;2024-02-15T06:15:16;6.20;;;2.30;;
68989;SDS011;56046;47.270;11.368;2024-02-15T06:17:41;4.80;;;2.10;;
68989;SDS011;56046;47.270;11.368;2024-02-15T06:20:09;6.65;;;2.33;;
68989;SDS011;56046;47.270;11.368;2024-02-15T06:22:37;7.47;;;2.60;;
68989;SDS011;56046;47.270;11.368;2024-02-15T06:25:03;7.70;;;2.70;;
68989;SDS011;56046;47.270;11.368;2024-02-15T06:27:28;6.63;;;2.80;;
68989;SDS011;56046;47.270;11.368;2024-02-15T06:29:53;5.43;;;2.20;;
68989;SDS011;56046;47.270;11.368;2024-02-15T06:32:37;5.10;;;1.80;;
68989;SDS011;56046;47.270;11.368;2024-02-15T06:35:29;3.45;;;1.58;;
68989;SDS011;56046;47.270;11.368;2024-02-15T06:38:12;5.70;;;1.95;;
68989;SDS011;56046;47.270;11.368;2024-02-15T06:40:56;5.50;;;1.90;;
68989;SDS011;56046;47.270;11.368;2024-02-15T06:43:21;4.90;;;1.83;;
68989;SDS011;56046;47.270;11.368;2024-02-15T06:45:47;4.50;;;2.10;;
68989;SDS011;56046;47.270;11.368;2024-02-15T06:48:12;4.10;;;1.70;;
68989;SDS011;56046;47.270;11.368;2024-02-15T06:50:38;6.67;;;2.00;;
68989;SDS011;56046;47.270;11.368;2024-02-15T06:53:04;4.75;;;1.90;;
68989;SDS011;56046;47.270;11.368;2024-02-15T06:55:29;3.43;;;1.30;;
68989;SDS011;56046;47.270;11.368;2024-02-15T06:57:55;3.63;;;1.63;;
68989;SDS011;56046;47.270;11.368;2024-02-15T07:00:21;6.03;;;2.00;;
68989;SDS011;56046;47.270;11.368;2024-02-15T07:02:46;5.03;;;2.30;;
68989;SDS011;56046;47.270;11.368;2024-02-15T07:05:13;5.70;;;2.42;;
68989;SDS011;56046;47.270;11.368;2024-02-15T07:07:38;5.70;;;2.40;;
68989;SDS011;56046;47.270;11.368;2024-02-15T07:10:04;6.80;;;2.67;;
68989;SDS011;56046;47.270;11.368;2024-02-15T07:12:30;8.38;;;2.83;;
68989;SDS011;56046;47.270;11.368;2024-02-15T07:14:57;6.78;;;2.60;;
68989;SDS011;56046;47.270;11.368;2024-02-15T07:17:22;6.67;;;2.67;;
68989;SDS011;56046;47.270;11.368;2024-02-15T07:19:48;8.75;;;3.00;;
68989;SDS011;56046;47.270;11.368;2024-02-15T07:22:17;7.57;;;3.33;;
68989;SDS011;56046;47.270;11.368;2024-02-15T07:24:42;8.35;;;3.47;;
68989;SDS011;56046;47.270;11.368;2024-02-15T07:27:07;6.87;;;3.17;;
68989;SDS011;56046;47.270;11.368;2024-02-15T07:29:33;9.70;;;3.40;;
68989;SDS011;56046;47.270;11.368;2024-02-15T07:32:01;8.82;;;4.47;;
68989;SDS011;56046;47.270;11.368;2024-02-15T07:34:30;8.60;;;3.70;;
68989;SDS011;56046;47.270;11.368;2024-02-15T07:36:55;10.87;;;3.80;;
68989;SDS011;56046;47.270;11.368;2024-02-15T07:39:22;8.60;;;4.00;;
68989;SDS011;56046;47.270;11.368;2024-02-15T07:41:49;9.30;;;3.83;;
68989;SDS011;56046;47.270;11.368;2024-02-15T07:44:15;9.82;;;3.97;;
68989;SDS011;56046;47.270;11.368;2024-02-15T07:46:41;10.18;;;3.67;;
68989;SDS011;56046;47.270;11.368;2024-02-15T07:49:06;9.53;;;3.97;;
68989;SDS011;56046;47.270;11.368;2024-02-15T07:51:33;8.93;;;4.38;;
68989;SDS011;56046;47.270;11.368;2024-02-15T07:53:58;11.07;;;4.07;;
68989;SDS011;56046;47.270;11.368;2024-02-15T07:56:23;10.17;;;4.30;;
68989;SDS011;56046;47.270;11.368;2024-02-15T07:58:48;8.63;;;3.93;;
68989;SDS011;56046;47.270;11.368;2024-02-15T08:01:17;12.13;;;4.40;;
68989;SDS011;56046;47.270;11.368;2024-02-15T08:03:42;9.33;;;4.00;;
68989;SDS011;56046;47.270;11.368;2024-02-15T08:06:15;7.43;;;3.50;;
68989;SDS011;56046;47.270;11.368;2024-02-15T08:08:41;9.95;;;3.60;;
68989;SDS011;56046;47.270;11.368;2024-02-15T08:11:06;6.63;;;2.90;;
68989;SDS011;56046;47.270;11.368;2024-02-15T08:13:35;7.70;;;3.25;;
68989;SDS011;56046;47.270;11.368;2024-02-15T08:16:03;6.70;;;3.10;;
68989;SDS011;56046;47.270;11.368;2024-02-15T08:18:30;9.32;;;3.80;;
68989;SDS011;56046;47.270;11.368;2024-02-15T08:20:55;10.93;;;4.67;;
68989;SDS011;56046;47.270;11.368;2024-02-15T08:23:21;10.73;;;4.28;;
68989;SDS011;56046;47.270;11.368;2024-02-15T08:25:46;11.02;;;4.75;;
68989;SDS011;56046;47.270;11.368;2024-02-15T08:28:12;10.30;;;3.95;;
68989;SDS011;56046;47.270;11.368;2024-02-15T08:30:38;12.47;;;4.33;;
68989;SDS011;56046;47.270;11.368;2024-02-15T08:33:03;10.10;;;3.83;;
68989;SDS011;56046;47.270;11.368;2024-02-15T08:35:29;10.68;;;4.07;;
68989;SDS011;56046;47.270;11.368;2024-02-15T08:37:54;10.30;;;4.53;;
68989;SDS011;56046;47.270;11.368;2024-02-15T08:40:20;8.82;;;4.10;;
68989;SDS011;56046;47.270;11.368;2024-02-15T08:42:50;9.95;;;4.00;;
68989;SDS011;56046;47.270;11.368;2024-02-15T08:45:15;9.57;;;4.20;;
68989;SDS011;56046;47.270;11.368;2024-02-15T08:47:42;8.83;;;4.03;;
68989;SDS011;56046;47.270;11.368;2024-02-15T08:50:08;8.77;;;4.10;;
68989;SDS011;56046;47.270;11.368;2024-02-15T08:52:37;7.20;;;3.88;;
68989;SDS011;56046;47.270;11.368;2024-02-15T08:55:04;8.93;;;4.03;;
68989;SDS011;56046;47.270;11.368;2024-02-15T08:57:31;11.05;;;4.07;;
68989;SDS011;56046;47.270;11.368;2024-02-15T08:59:57;8.57;;;4.10;;
68989;SDS011;56046;47.270;11.368;2024-02-15T09:02:22;8.47;;;4.10;;
68989;SDS011;56046;47.270;11.368;2024-02-15T09:04:47;9.70;;;4.10;;
68989;SDS011;56046;47.270;11.368;2024-02-15T09:07:13;10.50;;;4.03;;
68989;SDS011;56046;47.270;11.368;2024-02-15T09:09:38;8.93;;;3.60;;
68989;SDS011;56046;47.270;11.368;2024-02-15T09:12:03;9.60;;;3.70;;
68989;SDS011;56046;47.270;11.368;2024-02-15T09:14:34;8.32;;;3.55;;
68989;SDS011;56046;47.270;11.368;2024-02-15T09:17:01;6.50;;;2.87;;
68989;SDS011;56046;47.270;11.368;2024-02-15T09:19:32;8.93;;;3.22;;
68989;SDS011;56046;47.270;11.368;2024-02-15T09:21:57;6.93;;;2.83;;
68989;SDS011;56046;47.270;11.368;2024-02-15T09:24:22;7.50;;;3.50;;
68989;SDS011;56046;47.270;11.368;2024-02-15T09:26:50;6.60;;;3.33;;
68989;SDS011;56046;47.270;11.368;2024-02-15T09:29:15;9.77;;;3.30;;
68989;SDS011;56046;47.270;11.368;2024-02-15T09:31:40;7.80;;;3.20;;
68989;SDS011;56046;47.270;11.368;2024-02-15T09:34:06;7.97;;;3.00;;
68989;SDS011;56046;47.270;11.368;2024-02-15T09:36:34;8.90;;;3.47;;
68989;SDS011;56046;47.270;11.368;2024-02-15T09:39:02;9.10;;;3.38;;
68989;SDS011;56046;47.270;11.368;2024-02-15T09:41:28;10.97;;;3.53;;
68989;SDS011;56046;47.270;11.368;2024-02-15T09:43:53;9.23;;;3.40;;
68989;SDS011;56046;47.270;11.368;2024-02-15T09:46:19;10.67;;;3.83;;
68989;SDS011;56046;47.270;11.368;2024-02-15T09:48:46;9.77;;;3.40;;
68989;SDS011;56046;47.270;11.368;2024-02-15T09:51:12;8.52;;;2.92;;
68989;SDS011;56046;47.270;11.368;2024-02-15T09:53:37;14.17;;;2.70;;
68989;SDS011;56046;47.270;11.368;2024-02-15T09:56:03;9.50;;;2.80;;
68989;SDS011;56046;47.270;11.368;2024-02-15T09:58:29;6.75;;;2.90;;
68989;SDS011;56046;47.270;11.368;2024-02-15T10:00:58;9.45;;;2.92;;
68989;SDS011;56046;47.270;11.368;2024-02-15T10:03:24;6.85;;;2.42;;
68989;SDS011;56046;47.270;11.368;2024-02-15T10:05:50;5.97;;;2.40;;
68989;SDS011;56046;47.270;11.368;2024-02-15T10:08:16;8.18;;;2.92;;
68989;SDS011;56046;47.270;11.368;2024-02-15T10:10:42;6.95;;;2.15;;
68989;SDS011;56046;47.270;11.368;2024-02-15T10:13:10;5.60;;;2.10;;
68989;SDS011;56046;47.270;11.368;2024-02-15T10:15:37;6.50;;;2.58;;
68989;SDS011;56046;47.270;11.368;2024-02-15T10:18:04;7.97;;;2.90;;
68989;SDS011;56046;47.270;11.368;2024-02-15T10:20:30;5.30;;;2.38;;
68989;SDS011;56046;47.270;11.368;2024-02-15T10:25:23;6.68;;;2.92;;
68989;SDS011;56046;47.270;11.368;2024-02-15T10:27:51;5.95;;;2.10;;
68989;SDS011;56046;47.270;11.368;2024-02-15T10:30:26;4.47;;;1.70;;
68989;SDS011;56046;47.270;11.368;2024-02-15T10:32:52;7.53;;;2.08;;
68989;SDS011;56046;47.270;11.368;2024-02-15T10:35:20;5.00;;;1.80;;
68989;SDS011;56046;47.270;11.368;2024-02-15T10:37:47;5.68;;;2.08;;
68989;SDS011;56046;47.270;11.368;2024-02-15T10:40:14;3.78;;;1.77;;
68989;SDS011;56046;47.270;11.368;2024-02-15T10:42:42;10.13;;;2.50;;
68989;SDS011;56046;47.270;11.368;2024-02-15T10:45:07;5.63;;;2.10;;
68989;SDS011;56046;47.270;11.368;2024-02-15T10:47:35;6.22;;;2.83;;
68989;SDS011;56046;47.270;11.368;2024-02-15T10:50:02;3.72;;;1.83;;
68989;SDS011;56046;47.270;11.368;2024-02-15T10:52:28;5.13;;;1.97;;
68989;SDS011;56046;47.270;11.368;2024-02-15T10:55:04;3.92;;;1.92;;
68989;SDS011;56046;47.270;11.368;2024-02-15T10:57:38;4.67;;;1.93;;
68989;SDS011;56046;47.270;11.368;2024-02-15T11:00:04;8.07;;;2.45;;
68989;SDS011;56046;47.270;11.368;2024-02-15T11:05:16;6.85;;;2.13;;
68989;SDS011;56046;47.270;11.368;2024-02-15T11:07:46;6.88;;;2.40;;
68989;SDS011;56046;47.270;11.368;2024-02-15T11:10:11;5.00;;;2.10;;
68989;SDS011;56046;47.270;11.368;2024-02-15T11:12:37;4.20;;;1.90;;
68989;SDS011;56046;47.270;11.368;2024-02-15T11:15:02;5.18;;;2.40;;
68989;SDS011;56046;47.270;11.368;2024-02-15T11:20:10;3.72;;;1.92;;
68989;SDS011;56046;47.270;11.368;2024-02-15T11:22:36;3.70;;;1.08;;
68989;SDS011;56046;47.270;11.368;2024-02-15T11:25:05;2.17;;;1.20;;
68989;SDS011;56046;47.270;11.368;2024-02-15T11:27:37;1.92;;;1.00;;
68989;SDS011;56046;47.270;11.368;2024-02-15T11:30:04;4.25;;;1.50;;
68989;SDS011;56046;47.270;11.368;2024-02-15T11:32:38;2.90;;;1.38;;
68989;SDS011;56046;47.270;11.368;2024-02-15T11:35:11;3.67;;;1.20;;
68989;SDS011;56046;47.270;11.368;2024-02-15T11:40:17;2.83;;;1.40;;
68989;SDS011;56046;47.270;11.368;2024-02-15T11:42:43;3.85;;;1.20;;
68989;SDS011;56046;47.270;11.368;2024-02-15T11:45:08;3.13;;;1.50;;
68989;SDS011;56046;47.270;11.368;2024-02-15T11:47:37;3.30;;;1.63;;
68989;SDS011;56046;47.270;11.368;2024-02-15T11:50:05;3.42;;;1.88;;
68989;SDS011;56046;47.270;11.368;2024-02-15T11:52:33;3.63;;;1.30;;
68989;SDS011;56046;47.270;11.368;2024-02-15T11:55:05;4.97;;;1.42;;
68989;SDS011;56046;47.270;11.368;2024-02-15T11:57:35;3.17;;;1.25;;
68989;SDS011;56046;47.270;11.368;2024-02-15T12:00:22;2.80;;;1.30;;
68989;SDS011;56046;47.270;11.368;2024-02-15T12:03:06;2.42;;;1.15;;
68989;SDS011;56046;47.270;11.368;2024-02-15T12:05:50;3.47;;;1.30;;
68989;SDS011;56046;47.270;11.368;2024-02-15T12:08:35;2.00;;;1.00;;
68989;SDS011;56046;47.270;11.368;2024-02-15T12:11:19;2.03;;;0.93;;
68989;SDS011;56046;47.270;11.368;2024-02-15T12:14:03;2.93;;;1.47;;
68989;SDS011;56046;47.270;11.368;2024-02-15T12:16:47;2.50;;;1.40;;
68989;SDS011;56046;47.270;11.368;2024-02-15T12:19:31;2.97;;;1.30;;
68989;SDS011;56046;47.270;11.368;2024-02-15T12:21:56;3.13;;;1.10;;
68989;SDS011;56046;47.270;11.368;2024-02-15T12:24:22;2.40;;;1.20;;
68989;SDS011;56046;47.270;11.368;2024-02-15T12:26:51;1.63;;;0.77;;
68989;SDS011;56046;47.270;11.368;2024-02-15T12:29:17;1.63;;;1.10;;
68989;SDS011;56046;47.270;11.368;2024-02-15T12:31:43;2.88;;;1.20;;
68989;SDS011;56046;47.270;11.368;2024-02-15T12:34:09;1.90;;;1.00;;
68989;SDS011;56046;47.270;11.368;2024-02-15T12:36:35;2.77;;;1.20;;
68989;SDS011;56046;47.270;11.368;2024-02-15T12:39:04;2.55;;;1.08;;
68989;SDS011;56046;47.270;11.368;2024-02-15T12:41:47;3.00;;;1.48;;
68989;SDS011;56046;47.270;11.368;2024-02-15T12:44:15;3.22;;;1.20;;
68989;SDS011;56046;47.270;11.368;2024-02-15T12:46:41;2.28;;;1.42;;
68989;SDS011;56046;47.270;11.368;2024-02-15T12:49:07;3.20;;;1.37;;
68989;SDS011;56046;47.270;11.368;2024-02-15T12:51:32;2.55;;;1.38;;
68989;SDS011;56046;47.270;11.368;2024-02-15T12:54:07;2.53;;;1.30;;
68989;SDS011;56046;47.270;11.368;2024-02-15T12:56:33;3.47;;;1.50;;
68989;SDS011;56046;47.270;11.368;2024-02-15T12:58:58;4.17;;;1.70;;
68989;SDS011;56046;47.270;11.368;2024-02-15T13:01:23;2.60;;;1.30;;
68989;SDS011;56046;47.270;11.368;2024-02-15T13:03:51;4.03;;;1.00;;
68989;SDS011;56046;47.270;11.368;2024-02-15T13:06:16;2.92;;;1.67;;
68989;SDS011;56046;47.270;11.368;2024-02-15T13:08:43;3.25;;;1.30;;
68989;SDS011;56046;47.270;11.368;2024-02-15T13:11:13;4.67;;;1.20;;
68989;SDS011;56046;47.270;11.368;2024-02-15T13:13:40;4.32;;;1.55;;
68989;SDS011;56046;47.270;11.368;2024-02-15T13:16:07;2.80;;;0.90;;
68989;SDS011;56046;47.270;11.368;2024-02-15T13:18:32;4.13;;;1.80;;
68989;SDS011;56046;47.270;11.368;2024-02-15T13:20:57;4.10;;;1.37;;
68989;SDS011;56046;47.270;11.368;2024-02-15T13:23:23;6.00;;;1.60;;
68989;SDS011;56046;47.270;11.368;2024-02-15T13:25:50;2.95;;;1.30;;
68989;SDS011;56046;47.270;11.368;2024-02-15T13:28:17;3.88;;;1.70;;
68989;SDS011;56046;47.270;11.368;2024-02-15T13:30:43;5.35;;;1.52;;
68989;SDS011;56046;47.270;11.368;2024-02-15T13:33:10;3.15;;;1.77;;
68989;SDS011;56046;47.270;11.368;2024-02-15T13:35:35;2.77;;;1.17;;
68989;SDS011;56046;47.270;11.368;2024-02-15T13:38:01;5.83;;;1.70;;
68989;SDS011;56046;47.270;11.368;2024-02-15T13:40:27;6.88;;;1.50;;
68989;SDS011;56046;47.270;11.368;2024-02-15T13:42:55;3.78;;;1.60;;
68989;SDS011;56046;47.270;11.368;2024-02-15T13:45:23;4.47;;;1.67;;
68989;SDS011;56046;47.270;11.368;2024-02-15T13:47:50;4.45;;;1.52;;
68989;SDS011;56046;47.270;11.368;2024-02-15T13:50:16;4.47;;;1.57;;
68989;SDS011;56046;47.270;11.368;2024-02-15T13:52:42;3.25;;;1.67;;
68989;SDS011;56046;47.270;11.368;2024-02-15T13:55:09;4.57;;;1.63;;
68989;SDS011;56046;47.270;11.368;2024-02-15T13:57:34;3.40;;;1.80;;
68989;SDS011;56046;47.270;11.368;2024-02-15T13:59:59;4.00;;;1.90;;
68989;SDS011;56046;47.270;11.368;2024-02-15T14:02:25;6.20;;;1.67;;
68989;SDS011;56046;47.270;11.368;2024-02-15T14:04:50;6.10;;;2.00;;
68989;SDS011;56046;47.270;11.368;2024-02-15T14:07:15;5.70;;;2.17;;
68989;SDS011;56046;47.270;11.368;2024-02-15T14:09:41;6.10;;;2.30;;
68989;SDS011;56046;47.270;11.368;2024-02-15T14:12:06;4.53;;;1.70;;
68989;SDS011;56046;47.270;11.368;2024-02-15T14:14:32;3.80;;;1.80;;
68989;SDS011;56046;47.270;11.368;2024-02-15T14:16:57;3.80;;;1.70;;
68989;SDS011;56046;47.270;11.368;2024-02-15T14:19:22;3.57;;;2.10;;
68989;SDS011;56046;47.270;11.368;2024-02-15T14:21:51;6.00;;;2.10;;
68989;SDS011;56046;47.270;11.368;2024-02-15T14:24:19;3.70;;;1.73;;
68989;SDS011;56046;47.270;11.368;2024-02-15T14:26:47;7.30;;;2.00;;
68989;SDS011;56046;47.270;11.368;2024-02-15T14:29:13;9.07;;;2.40;;
68989;SDS011;56046;47.270;11.368;2024-02-15T14:31:39;5.45;;;1.50;;
68989;SDS011;56046;47.270;11.368;2024-02-15T14:34:23;5.20;;;1.65;;
68989;SDS011;56046;47.270;11.368;2024-02-15T14:36:50;5.18;;;1.52;;
68989;SDS011;56046;47.270;11.368;2024-02-15T14:39:15;5.50;;;1.53;;
68989;SDS011;56046;47.270;11.368;2024-02-15T14:41:41;5.03;;;1.90;;
68989;SDS011;56046;47.270;11.368;2024-02-15T14:44:08;5.32;;;2.03;;